Time;durP1;ratioP1;P1;durP2;ratioP2;P2;SDS_P1;SDS_P2;PMS_P1;PMS_P2;Temp;Humidity;BMP_temperature;BMP_pressure;BME280_temperature;BME280_humidity;BME280_pressure;Samples;Min_cycle;Max_cycle;Signal;HPM_P1;HPM_P2
2022/05/03 00:00:10;;;;;;;5.70;2.75;;;;;;;13.77;59.67;99641.28;4431857;32;34975;-83
2022/05/03 00:03:17;;;;;;;6.82;3.00;;;;;;;13.81;59.20;99639.50;4432853;32;34487;-82
2022/05/03 00:06:23;;;;;;;5.25;2.92;;;;;;;13.43;61.01;99632.09;4434250;32;34878;-82
2022/05/03 00:09:12;;;;;;;4.70;3.00;;;;;;;14.06;58.89;99628.66;4419669;32;35532;-81
2022/05/03 00:12:03;;;;;;;5.72;3.17;;;;;;;14.03;58.54;99634.81;4421236;32;33757;-82
2022/05/03 00:14:52;;;;;;;5.37;3.40;;;;;;;12.79;63.14;99640.31;4433758;32;35577;-82
2022/05/03 00:17:41;;;;;;;5.47;2.90;;;;;;;12.28;65.19;99625.47;4422623;32;34230;-82
2022/05/03 00:20:28;;;;;;;5.72;3.15;;;;;;;13.23;62.17;99632.75;4430959;32;35834;-82
2022/05/03 00:23:15;;;;;;;6.07;3.10;;;;;;;13.55;60.57;99633.31;4421022;32;34709;-82
2022/05/03 00:26:02;;;;;;;5.85;3.12;;;;;;;13.52;61.52;99628.47;4416328;32;34543;-82
2022/05/03 00:28:53;;;;;;;5.20;2.90;;;;;;;13.01;63.12;99631.84;4416629;32;34226;-82
2022/05/03 00:31:39;;;;;;;5.55;3.30;;;;;;;13.18;62.79;99630.19;4416042;32;34672;-82
2022/05/03 00:34:26;;;;;;;6.40;2.95;;;;;;;13.78;60.59;99626.41;4418189;32;34931;-82
2022/05/03 00:37:15;;;;;;;6.20;3.05;;;;;;;13.84;60.71;99625.06;4416977;32;34682;-82
2022/05/03 00:40:02;;;;;;;5.62;3.05;;;;;;;13.89;60.83;99622.13;4415975;32;35071;-81
2022/05/03 00:43:26;;;;;;;4.10;2.42;;;;;;;13.85;60.59;99620.37;4414864;32;34430;-82
2022/05/03 00:46:16;;;;;;;5.47;2.70;;;;;;;13.75;60.93;99624.31;4417502;32;34661;-82
2022/05/03 00:49:22;;;;;;;5.97;2.90;;;;;;;12.66;64.25;99622.84;4417108;32;34139;-82
2022/05/03 00:52:21;;;;;;;6.57;3.03;;;;;;;13.56;62.07;99615.66;4416615;32;34700;-81
2022/05/03 00:55:21;;;;;;;6.18;2.85;;;;;;;13.72;61.06;99628.53;4417038;32;34128;-82
2022/05/03 00:58:30;;;;;;;7.53;2.97;;;;;;;13.93;60.43;99617.56;4417703;32;35065;-81
2022/05/03 01:01:32;;;;;;;5.85;3.20;;;;;;;13.85;60.93;99614.84;4418861;32;35627;-82
2022/05/03 01:04:26;;;;;;;;;;;;;;;14.17;59.72;99610.56;4419853;32;33962;-81
2022/05/03 01:07:32;;;;;;;6.40;3.10;;;;;;;14.17;59.42;99611.41;4418982;32;34584;-81
2022/05/03 01:10:33;;;;;;;5.30;2.97;;;;;;;14.08;59.95;99613.41;4419832;32;35920;-81
2022/05/03 01:13:33;;;;;;;6.72;2.90;;;;;;;13.94;60.92;99612.84;4395874;32;32625;-81
2022/05/03 01:16:28;;;;;;;5.50;3.20;;;;;;;13.88;61.80;99614.97;4418762;32;33686;-82
2022/05/03 01:19:34;;;;;;;5.72;3.10;;;;;;;13.81;62.25;99620.22;4419455;32;34221;-82
2022/05/03 01:22:40;;;;;;;6.40;3.42;;;;;;;13.76;62.48;99625.91;4416591;32;35893;-81
2022/05/03 01:25:55;;;;;;;6.25;2.70;;;;;;;13.68;62.36;99618.50;4429963;32;34581;-82
2022/05/03 01:29:12;;;;;;;5.03;2.97;;;;;;;13.59;62.74;99628.75;4432803;32;34206;-81
2022/05/03 01:32:12;;;;;;;5.78;3.12;;;;;;;13.26;63.45;99621.13;4401860;32;34540;-81
2022/05/03 01:34:58;;;;;;;6.12;3.30;;;;;;;12.80;65.24;99620.72;4422794;32;33483;-82
2022/05/03 01:38:03;;;;;;;4.95;2.75;;;;;;;12.99;64.65;99623.12;4433644;32;34420;-81
2022/05/03 01:41:14;;;;;;;5.32;3.08;;;;;;;13.08;64.34;99622.28;4432176;32;35102;-81
2022/05/03 01:44:13;;;;;;;5.20;3.00;;;;;;;12.57;65.93;99616.56;4432855;32;35731;-81
2022/05/03 01:47:12;;;;;;;8.52;3.55;;;;;;;13.17;63.74;99617.56;4422846;32;34506;-81
2022/05/03 01:50:20;;;;;;;5.68;3.35;;;;;;;13.33;63.53;99615.94;4411903;32;34281;-81
2022/05/03 01:53:17;;;;;;;6.50;3.25;;;;;;;13.36;63.69;99618.00;4432738;32;34803;-81
2022/05/03 01:56:13;;;;;;;6.80;3.30;;;;;;;13.27;64.42;99622.75;4420969;32;35431;-81
2022/05/03 01:59:05;;;;;;;5.68;3.37;;;;;;;13.24;64.79;99615.94;4433430;32;36022;-81
2022/05/03 02:05:06;;;;;;;6.05;3.45;;;;;;;13.18;64.70;99614.50;4423771;32;35174;-81
2022/05/03 02:07:57;;;;;;;4.43;2.80;;;;;;;13.11;64.30;99618.88;4431707;32;35462;-81
2022/05/03 02:11:02;;;;;;;5.15;3.12;;;;;;;12.52;66.03;99620.28;4423134;32;36001;-81
2022/05/03 02:17:04;;;;;;;5.57;3.12;;;;;;;12.18;68.00;99612.03;4433279;32;33796;-81
2022/05/03 02:19:56;;;;;;;5.35;3.30;;;;;;;12.41;66.74;99618.16;4433130;32;34649;-81
2022/05/03 02:23:08;;;;;;;4.97;3.30;;;;;;;12.73;66.18;99614.13;4431571;32;35044;-81
2022/05/03 02:26:28;;;;;;;6.57;3.50;;;;;;;12.95;65.57;99615.84;4426612;32;35599;-81
2022/05/03 02:29:18;;;;;;;7.25;3.08;;;;;;;12.93;65.69;99618.94;4419320;32;32808;-81
2022/05/03 02:32:05;;;;;;;5.40;3.05;;;;;;;12.97;65.38;99619.87;4416523;32;35191;-80
2022/05/03 02:35:03;;;;;;;6.12;3.03;;;;;;;13.02;65.13;99625.22;4418070;32;35056;-81
2022/05/03 02:37:58;;;;;;;6.97;3.80;;;;;;;13.08;64.78;99620.34;4416388;32;36010;-81
2022/05/03 02:40:46;;;;;;;11.23;3.37;;;;;;;12.96;64.94;99623.78;4416478;32;33770;-81
2022/05/03 02:43:34;;;;;;;5.35;3.30;;;;;;;13.01;64.85;99620.06;4415744;32;35570;-81
2022/05/03 02:46:49;;;;;;;5.65;3.10;;;;;;;12.78;65.14;99619.47;4418166;32;35899;-81
2022/05/03 02:49:56;;;;;;;5.12;3.00;;;;;;;12.96;65.11;99623.78;4419266;32;34560;-81
2022/05/03 02:53:01;;;;;;;5.45;3.15;;;;;;;13.03;64.54;99624.09;4416726;32;34221;-81
2022/05/03 02:55:54;;;;;;;5.97;2.90;;;;;;;12.92;64.50;99622.81;4417037;32;34103;-80
2022/05/03 02:58:56;;;;;;;6.40;3.55;;;;;;;12.89;65.08;99626.19;4418864;32;34914;-81
2022/05/03 03:02:04;;;;;;;5.12;2.47;;;;;;;12.74;65.59;99621.22;4414742;32;35652;-80
2022/05/03 03:05:00;;;;;;;6.20;3.35;;;;;;;12.54;65.63;99623.50;4415539;32;34209;-81
2022/05/03 03:07:58;;;;;;;4.57;3.00;;;;;;;12.41;65.85;99624.50;4418851;32;34713;-81
2022/05/03 03:10:54;;;;;;;7.03;3.10;;;;;;;12.32;66.17;99620.91;4417972;32;34271;-81
2022/05/03 03:14:06;;;;;;;3.55;2.45;;;;;;;12.33;66.00;99620.59;4416736;32;33590;-81
2022/05/03 03:16:56;;;;;;;7.15;3.15;;;;;;;12.26;66.42;99624.97;4418361;32;33789;-81
2022/05/03 03:20:08;;;;;;;5.45;3.25;;;;;;;12.32;66.36;99626.41;4417351;32;35588;-80
2022/05/03 03:22:56;;;;;;;8.52;3.22;;;;;;;12.24;66.22;99616.22;4414350;32;35959;-80
2022/05/03 03:25:46;;;;;;;5.53;3.25;;;;;;;11.99;66.83;99617.84;4413731;32;34226;-81
2022/05/03 03:28:34;;;;;;;6.47;3.05;;;;;;;12.02;67.39;99617.19;4417937;32;33779;-81
2022/05/03 03:31:23;;;;;;;5.43;3.42;;;;;;;11.25;69.95;99628.37;4400580;32;34152;-81
2022/05/03 03:34:11;;;;;;;7.80;3.40;;;;;;;11.78;68.81;99623.06;4418396;32;34018;-81
2022/05/03 03:37:02;;;;;;;8.18;3.60;;;;;;;12.29;66.58;99622.38;4417314;32;35076;-82
2022/05/03 03:39:49;;;;;;;7.07;3.42;;;;;;;11.85;68.16;99629.75;4417938;32;33871;-82
2022/05/03 03:42:40;;;;;;;6.60;3.70;;;;;;;11.05;70.38;99637.16;4419119;32;35283;-85
2022/05/03 03:45:30;;;;;;;7.15;3.20;;;;;;;10.41;75.63;99636.53;4417236;32;35010;-86
2022/05/03 03:48:17;;;;;;;6.95;3.70;;;;;;;11.45;70.51;99628.97;4418522;32;34600;-84
2022/05/03 03:51:05;;;;;;;8.40;3.75;;;;;;;11.87;68.48;99626.72;4418311;32;33694;-85
2022/05/03 03:53:55;;;;;;;6.93;3.78;;;;;;;12.04;67.43;99632.22;4414245;32;34699;-85
2022/05/03 03:56:43;;;;;;;7.07;3.28;;;;;;;12.00;67.46;99636.72;4417002;32;33685;-86
2022/05/03 03:59:33;;;;;;;4.53;2.95;;;;;;;12.02;67.40;99639.97;4414311;32;33576;-87
2022/05/03 04:02:28;;;;;;;5.47;3.45;;;;;;;11.90;67.52;99637.03;4416839;32;34408;-87
2022/05/03 04:05:26;;;;;;;5.62;3.25;;;;;;;11.97;67.39;99642.84;4418204;32;34678;-87
2022/05/03 04:11:17;;;;;;;6.40;3.35;;;;;;;11.82;67.71;99644.09;4417266;32;34629;-85
2022/05/03 04:14:08;;;;;;;6.18;3.53;;;;;;;11.45;68.29;99646.22;4415983;32;34687;-86
2022/05/03 04:16:57;;;;;;;6.50;3.83;;;;;;;10.56;72.35;99647.97;4419464;32;34608;-85
2022/05/03 04:19:43;;;;;;;6.82;3.80;;;;;;;10.55;74.46;99649.06;4417970;32;34553;-85
2022/05/03 04:22:32;;;;;;;8.52;4.43;;;;;;;10.65;73.87;99649.97;4415866;32;34212;-86
2022/05/03 04:25:18;;;;;;;4.97;3.05;;;;;;;10.74;72.85;99651.63;4416057;32;34195;-86
2022/05/03 04:28:05;;;;;;;7.80;3.40;;;;;;;10.72;72.81;99653.88;4410566;32;34190;-85
2022/05/03 04:30:56;;;;;;;6.55;3.40;;;;;;;10.63;74.63;99652.19;4415629;32;35015;-84
2022/05/03 04:33:45;;;;;;;7.60;3.62;;;;;;;10.89;72.89;99655.12;4417494;32;34563;-84
2022/05/03 04:36:35;;;;;;;6.93;3.80;;;;;;;11.22;70.78;99661.94;4418112;32;34610;-84
2022/05/03 04:39:25;;;;;;;6.03;3.70;;;;;;;11.24;71.34;99654.22;4416791;32;34248;-84
2022/05/03 04:42:13;;;;;;;8.63;4.00;;;;;;;11.57;70.24;99656.59;4416214;32;35095;-83
2022/05/03 04:45:03;;;;;;;5.75;3.42;;;;;;;11.88;68.61;99648.34;4415983;32;34531;-84
2022/05/03 04:47:52;;;;;;;5.50;3.42;;;;;;;11.95;68.93;99652.53;4417529;32;33869;-84
2022/05/03 04:50:42;;;;;;;7.50;3.60;;;;;;;12.04;68.39;99650.63;4417326;32;35550;-84
2022/05/03 04:53:30;;;;;;;7.72;4.47;;;;;;;11.82;69.39;99657.00;4404910;32;35390;-84
2022/05/03 04:56:23;;;;;;;8.27;4.07;;;;;;;12.33;67.84;99648.09;4416668;32;35671;-85
2022/05/03 04:59:12;;;;;;;7.12;3.53;;;;;;;12.48;67.23;99649.53;4414887;32;34284;-85
2022/05/03 05:02:01;;;;;;;6.35;3.72;;;;;;;12.44;67.23;99659.56;4416745;32;34124;-84
2022/05/03 05:04:52;;;;;;;8.38;3.95;;;;;;;11.35;71.46;99660.22;4417791;32;34997;-84
2022/05/03 05:07:43;;;;;;;5.70;3.72;;;;;;;12.22;67.80;99663.25;4414916;32;35375;-84
2022/05/03 05:10:41;;;;;;;6.70;3.40;;;;;;;11.56;70.09;99674.19;4415139;32;35055;-84
2022/05/03 05:13:30;;;;;;;6.78;3.50;;;;;;;12.02;69.29;99672.91;4417321;32;35543;-84
2022/05/03 05:16:17;;;;;;;6.15;3.37;;;;;;;12.28;67.24;99672.16;4403969;32;34873;-84
2022/05/03 05:19:05;;;;;;;7.43;3.28;;;;;;;12.07;67.95;99670.03;4405381;32;35034;-85
2022/05/03 05:21:55;;;;;;;6.55;3.47;;;;;;;12.82;65.74;99670.69;4403480;32;35091;-85
2022/05/03 05:24:45;;;;;;;8.13;3.97;;;;;;;12.71;65.78;99669.41;4415826;32;35229;-85
2022/05/03 05:27:32;;;;;;;8.15;3.30;;;;;;;12.08;68.06;99659.84;4416556;32;35985;-84
2022/05/03 05:30:27;;;;;;;8.60;3.80;;;;;;;13.14;65.67;99668.53;4416780;32;34626;-85
2022/05/03 05:33:15;;;;;;;6.53;3.85;;;;;;;13.35;64.61;99667.88;4415421;32;35034;-85
2022/05/03 05:36:09;;;;;;;7.50;3.05;;;;;;;13.35;64.67;99657.69;4415235;32;34637;-84
2022/05/03 05:38:56;;;;;;;8.80;4.22;;;;;;;12.99;67.20;99669.06;4416316;32;35043;-85
2022/05/03 05:41:43;;;;;;;7.25;4.00;;;;;;;12.63;68.29;99661.19;4416663;32;34306;-84
2022/05/03 05:44:29;;;;;;;9.48;4.65;;;;;;;13.35;66.82;99665.13;4419481;32;34130;-86
2022/05/03 05:47:17;;;;;;;6.28;3.87;;;;;;;13.69;64.96;99665.00;4418947;32;35605;-85
2022/05/03 05:50:05;;;;;;;10.68;5.75;;;;;;;13.23;68.02;99668.53;4418808;32;35645;-86
2022/05/03 05:56:09;;;;;;;6.70;4.15;;;;;;;14.04;64.43;99662.06;4416706;32;34403;-85
2022/05/03 05:58:57;;;;;;;9.45;4.15;;;;;;;14.74;62.44;99662.38;4395479;32;34456;-86
2022/05/03 06:01:51;;;;;;;9.07;4.35;;;;;;;14.45;62.50;99663.22;4419434;32;35643;-86
2022/05/03 06:04:38;;;;;;;7.07;3.70;;;;;;;15.12;60.57;99663.31;4419234;32;34690;-86
2022/05/03 06:07:24;;;;;;;7.55;3.92;;;;;;;15.50;60.21;99661.06;4417253;32;35065;-87
2022/05/03 06:10:10;;;;;;;7.60;3.70;;;;;;;15.83;59.83;99662.19;4418005;32;34249;-86
2022/05/03 06:12:59;;;;;;;7.90;4.28;;;;;;;15.43;60.31;99666.37;4418096;32;35115;-86
2022/05/03 06:15:48;;;;;;;6.75;4.30;;;;;;;15.82;60.53;99663.31;4418467;32;34675;-86
2022/05/03 06:18:41;;;;;;;9.40;4.87;;;;;;;16.34;58.71;99666.16;4418743;32;34116;-87
2022/05/03 06:21:36;;;;;;;9.93;4.85;;;;;;;16.38;58.75;99661.53;4418927;32;35610;-87
2022/05/03 06:24:23;;;;;;;10.32;4.70;;;;;;;16.67;56.87;99667.09;4418304;32;34914;-89
2022/05/03 06:27:15;;;;;;;8.13;4.90;;;;;;;16.88;58.08;99662.22;4407391;32;34219;-88
2022/05/03 06:30:04;;;;;;;9.57;4.43;;;;;;;16.60;57.63;99662.97;4416242;32;34241;-86
2022/05/03 06:32:52;;;;;;;8.02;4.72;;;;;;;16.92;57.36;99663.09;4406870;32;35586;-86
2022/05/03 06:35:39;;;;;;;9.25;5.10;;;;;;;17.47;54.47;99661.41;4417451;32;34944;-86
2022/05/03 06:38:27;;;;;;;9.80;4.93;;;;;;;17.58;53.99;99666.41;4418003;32;35422;-88
2022/05/03 06:41:14;;;;;;;10.25;4.75;;;;;;;17.87;53.69;99662.41;4419138;32;33853;-87
2022/05/03 06:44:01;;;;;;;10.15;5.35;;;;;;;17.34;55.73;99670.16;4407183;32;35537;-88
2022/05/03 06:46:49;;;;;;;8.80;5.40;;;;;;;17.71;54.47;99674.28;4405653;32;34951;-87
2022/05/03 06:49:37;;;;;;;9.55;4.87;;;;;;;17.90;54.85;99664.44;4417448;32;35789;-89
2022/05/03 06:52:27;;;;;;;9.23;4.90;;;;;;;18.11;53.13;99664.16;4416029;32;33975;-89
2022/05/03 06:55:15;;;;;;;10.13;5.30;;;;;;;18.26;52.19;99660.53;4416792;32;34217;-88
2022/05/03 06:58:02;;;;;;;14.23;5.10;;;;;;;17.96;52.50;99661.06;4417666;32;34932;-88
2022/05/03 07:01:09;;;;;;;8.27;3.83;;;;;;;18.16;52.43;99661.12;4416871;32;33533;-89
2022/05/03 07:04:02;;;;;;;5.90;3.60;;;;;;;18.52;51.93;99667.44;4397057;32;33096;-88
2022/05/03 07:06:50;;;;;;;5.93;3.78;;;;;;;18.22;48.07;99665.22;4408669;32;34176;-88
2022/05/03 07:09:44;;;;;;;8.45;3.67;;;;;;;17.87;49.45;99667.94;4399253;32;35591;-88
2022/05/03 07:12:32;;;;;;;7.00;3.55;;;;;;;17.72;49.69;99664.00;4412396;32;35496;-88
2022/05/03 07:15:19;;;;;;;7.97;3.30;;;;;;;17.91;48.00;99661.34;4414774;32;32776;-87
2022/05/03 07:24:23;;;;;;;6.50;3.37;;;;;;;18.72;48.66;99660.72;4418045;32;35527;-89
2022/05/03 07:27:10;;;;;;;7.07;3.58;;;;;;;19.11;45.86;99663.50;4404931;32;33622;-89
2022/05/03 07:29:58;;;;;;;5.37;2.60;;;;;;;19.30;45.29;99666.25;4406833;32;35241;-89
2022/05/03 07:32:46;;;;;;;6.45;2.80;;;;;;;19.12;42.78;99667.88;4418692;32;34591;-91
2022/05/03 07:35:33;;;;;;;4.87;2.70;;;;;;;18.95;45.32;99666.37;4418524;32;34602;-90
2022/05/03 07:38:23;;;;;;;4.50;3.03;;;;;;;18.90;44.56;99665.87;4417971;32;34280;-88
2022/05/03 07:41:16;;;;;;;;;;;;;;;18.51;44.65;99666.66;4419722;32;34917;-89
2022/05/03 07:44:09;;;;;;;5.32;2.95;;;;;;;18.92;44.12;99666.31;4416023;32;36799;-90
2022/05/03 07:46:57;;;;;;;8.23;2.65;;;;;;;19.67;43.45;99667.72;4418705;32;35594;-91
2022/05/03 07:49:43;;;;;;;6.18;2.85;;;;;;;18.62;45.31;99667.69;4408952;32;34834;-89
2022/05/03 07:52:32;;;;;;;5.40;2.72;;;;;;;18.74;43.77;99661.22;4407802;32;34615;-91
2022/05/03 07:55:31;;;;;;;10.82;3.00;;;;;;;19.24;43.33;99666.91;4419088;32;35011;-89
2022/05/03 07:58:21;;;;;;;4.62;2.55;;;;;;;18.98;42.30;99662.06;4419174;32;35508;-91
2022/05/03 08:01:09;;;;;;;6.60;2.50;;;;;;;19.40;42.56;99669.59;4408134;32;35090;-89
2022/05/03 08:03:56;;;;;;;5.22;2.37;;;;;;;18.98;42.17;99664.84;4418207;32;35644;-90
2022/05/03 08:06:43;;;;;;;7.07;2.25;;;;;;;19.23;42.08;99666.13;4420697;32;34625;-89
2022/05/03 08:09:34;;;;;;;5.62;2.40;;;;;;;19.76;41.28;99671.84;4419534;32;34629;-91
2022/05/03 08:12:23;;;;;;;;;;;;;;;19.71;40.02;99672.16;4396742;32;33698;-91
2022/05/03 08:15:10;;;;;;;7.10;2.53;;;;;;;20.31;39.50;99659.56;4407557;32;35743;-91
2022/05/03 08:18:00;;;;;;;5.65;2.95;;;;;;;20.62;39.21;99661.19;4418700;32;35193;-91
2022/05/03 08:20:52;;;;;;;6.70;2.47;;;;;;;20.11;39.78;99658.87;4420026;32;35416;-90
2022/05/03 08:23:39;;;;;;;3.95;2.17;;;;;;;20.94;38.36;99664.38;4418093;32;34086;-91
2022/05/03 08:26:30;;;;;;;4.03;2.15;;;;;;;20.84;39.61;99665.06;4418963;32;34699;-92
2022/05/03 08:29:19;;;;;;;3.72;2.12;;;;;;;20.61;39.05;99668.75;4416638;32;34959;-91
2022/05/03 08:32:14;;;;;;;7.00;2.33;;;;;;;20.60;39.21;99658.78;4408089;32;34585;-90
2022/05/03 08:35:02;;;;;;;3.72;2.40;;;;;;;20.60;39.06;99663.56;4419121;32;33820;-91
2022/05/03 08:44:09;;;;;;;4.93;2.42;;;;;;;20.94;38.41;99660.78;4415510;32;34332;-75
2022/05/03 08:46:57;;;;;;;6.10;2.10;;;;;;;20.76;36.88;99669.72;4405706;32;34238;-74
2022/05/03 08:49:48;;;;;;;5.75;2.00;;;;;;;20.49;38.16;99663.41;4405298;32;34362;-74
2022/05/03 08:52:48;;;;;;;9.43;2.75;;;;;;;20.80;37.45;99666.97;4416246;32;35839;-74
2022/05/03 08:55:41;;;;;;;4.20;2.20;;;;;;;20.49;37.90;99668.97;4403054;32;34285;-74
2022/05/03 08:58:30;;;;;;;7.20;2.35;;;;;;;20.37;37.17;99666.41;4401598;32;34092;-74
2022/05/03 09:01:18;;;;;;;3.95;2.30;;;;;;;20.79;36.76;99657.81;4404803;32;34577;-74
2022/05/03 09:04:09;;;;;;;4.70;2.47;;;;;;;21.82;37.06;99660.06;4412139;32;35160;-74
2022/05/03 09:06:56;;;;;;;4.95;2.53;;;;;;;22.46;34.59;99648.56;4415406;32;34614;-74
2022/05/03 09:09:45;;;;;;;3.95;2.12;;;;;;;22.53;34.56;99650.59;4401370;32;33575;-73
2022/05/03 09:12:39;;;;;;;5.32;2.40;;;;;;;22.98;35.11;99654.00;4402962;32;35643;-73
2022/05/03 09:15:33;;;;;;;6.53;3.00;;;;;;;22.69;33.80;99653.84;4404846;32;34458;-73
2022/05/03 09:18:28;;;;;;;5.72;2.45;;;;;;;21.50;36.65;99652.25;4418123;32;34271;-74
2022/05/03 09:24:29;;;;;;;4.75;2.50;;;;;;;21.43;34.97;99640.22;4419069;32;35599;-73
2022/05/03 09:27:21;;;;;;;4.50;2.45;;;;;;;21.16;37.19;99640.34;4407062;32;35050;-72
2022/05/03 09:33:04;;;;;;;4.95;2.58;;;;;;;22.90;36.45;99637.16;4418852;32;34690;-72
2022/05/03 09:36:09;;;;;;;5.82;2.30;;;;;;;23.64;34.14;99632.12;4418778;32;35623;-74
2022/05/03 09:39:24;;;;;;;6.10;2.97;;;;;;;23.13;34.02;99636.06;4404586;32;34908;-74
2022/05/03 09:42:17;;;;;;;5.82;2.65;;;;;;;22.30;33.70;99643.28;4414747;32;35610;-73
2022/05/03 09:45:08;;;;;;;4.10;2.15;;;;;;;23.29;34.00;99627.31;4401665;32;34565;-73
2022/05/03 09:47:58;;;;;;;5.82;2.70;;;;;;;23.25;33.72;99632.06;4406231;32;34824;-73
2022/05/03 09:50:46;;;;;;;3.92;2.10;;;;;;;22.64;35.06;99631.88;4415183;32;33960;-73
2022/05/03 09:53:35;;;;;;;3.75;2.20;;;;;;;23.79;34.93;99632.94;4406247;32;34259;-73
2022/05/03 09:56:26;;;;;;;6.68;2.95;;;;;;;24.43;33.53;99632.84;4415068;32;33753;-73
2022/05/03 09:59:15;;;;;;;5.85;3.12;;;;;;;24.24;32.29;99625.66;4403954;32;35409;-73
2022/05/03 10:02:03;;;;;;;4.30;2.53;;;;;;;23.36;32.19;99621.72;4406395;32;34980;-72
2022/05/03 10:04:57;;;;;;;3.87;2.70;;;;;;;24.23;33.31;99624.06;4394881;32;34555;-73
2022/05/03 10:07:45;;;;;;;7.75;3.00;;;;;;;23.66;31.44;99617.75;4405666;32;34275;-73
2022/05/03 10:10:32;;;;;;;6.93;2.67;;;;;;;24.40;31.67;99608.44;4403793;32;35147;-73
2022/05/03 10:13:18;;;;;;;5.53;3.00;;;;;;;24.81;30.27;99607.06;4416668;32;36015;-73
2022/05/03 10:22:31;;;;;;;4.97;3.10;;;;;;;24.77;29.75;99606.31;4409310;32;34666;-73
2022/05/03 10:25:48;;;;;;;9.48;2.85;;;;;;;24.53;28.28;99597.59;4400927;32;35879;-72
2022/05/03 10:29:09;;;;;;;5.50;3.30;;;;;;;24.57;31.27;99608.78;4412768;32;35113;-73
2022/05/03 10:32:03;;;;;;;6.60;3.12;;;;;;;23.74;29.68;99600.59;4402268;32;34338;-73
2022/05/03 10:34:52;;;;;;;5.85;2.78;;;;;;;24.36;30.78;99599.25;4394761;32;32679;-73
2022/05/03 10:37:40;;;;;;;4.03;2.62;;;;;;;23.58;30.83;99600.16;4405989;32;35062;-73
2022/05/03 10:40:39;;;;;;;5.18;2.60;;;;;;;23.96;30.29;99592.13;4404286;32;35736;-74
2022/05/03 10:43:38;;;;;;;5.78;2.60;;;;;;;22.17;32.96;99603.75;4400251;32;34274;-74
2022/05/03 10:46:25;;;;;;;3.80;2.05;;;;;;;20.86;35.30;99599.44;4392459;32;34567;-74
2022/05/03 10:49:15;;;;;;;5.60;2.62;;;;;;;20.84;36.33;99601.81;4409885;32;35017;-74
2022/05/03 10:52:16;;;;;;;6.20;2.28;;;;;;;20.76;36.56;99599.31;4405522;32;35435;-73
2022/05/03 10:55:07;;;;;;;5.53;2.78;;;;;;;20.51;37.83;99610.91;4395932;32;35063;-74
2022/05/03 10:58:22;;;;;;;4.47;2.55;;;;;;;19.04;40.54;99624.50;4386094;32;34394;-75
2022/05/03 11:01:17;;;;;;;4.20;2.45;;;;;;;18.96;41.92;99625.56;4393388;32;35877;-75
2022/05/03 11:04:04;;;;;;;4.85;2.67;;;;;;;19.03;42.32;99617.34;4405439;32;34673;-75
2022/05/03 11:06:51;;;;;;;5.05;2.72;;;;;;;18.89;43.48;99617.88;4408381;32;35046;-75
2022/05/03 11:09:39;;;;;;;4.37;2.40;;;;;;;17.98;51.03;99622.69;4391217;32;34380;-73
2022/05/03 11:16:18;;;;;;;3.85;2.55;;;;;;;16.61;51.05;99609.25;4411089;32;35462;-75
2022/05/03 11:19:13;;;;;;;5.47;2.17;;;;;;;16.45;46.77;99600.09;4411244;32;33166;-75
2022/05/03 11:21:59;;;;;;;3.60;1.52;;;;;;;16.14;47.90;99612.63;4391865;32;35584;-72
2022/05/03 11:24:52;;;;;;;2.62;1.10;;;;;;;16.72;44.19;99603.22;4403047;32;34831;-73
2022/05/03 11:27:43;;;;;;;2.62;1.52;;;;;;;17.28;38.39;99592.88;4418763;32;34722;-73
2022/05/03 11:30:43;;;;;;;1.90;0.90;;;;;;;17.83;37.63;99597.78;4408710;32;34064;-74
2022/05/03 11:33:51;;;;;;;4.40;1.10;;;;;;;18.11;37.05;99590.09;4418893;32;34261;-74
2022/05/03 11:36:40;;;;;;;3.62;1.30;;;;;;;17.89;39.42;99596.34;4419278;32;35426;-74
2022/05/03 11:39:29;;;;;;;3.42;1.20;;;;;;;17.61;40.56;99604.75;4417773;32;35058;-74
2022/05/03 11:42:21;;;;;;;2.70;1.70;;;;;;;17.27;41.31;99612.59;4407166;32;34204;-74
2022/05/03 11:45:13;;;;;;;3.15;1.58;;;;;;;17.62;39.36;99607.16;4407894;32;35087;-75
2022/05/03 11:48:05;;;;;;;2.35;1.30;;;;;;;17.45;42.63;99583.41;4418713;32;35922;-75
2022/05/03 11:57:40;;;;;;;1.60;1.20;;;;;;;17.80;40.44;99591.00;4392986;32;35572;-75
2022/05/03 12:00:45;;;;;;;2.10;1.20;;;;;;;18.56;39.86;99582.31;4407187;32;35872;-75
2022/05/03 12:03:53;;;;;;;2.47;1.50;;;;;;;19.07;38.33;99582.94;4415865;32;35438;-75
2022/05/03 12:06:44;;;;;;;1.80;1.10;;;;;;;20.06;36.18;99565.41;4416314;32;35019;-75
2022/05/03 12:09:36;;;;;;;3.87;1.35;;;;;;;20.03;34.52;99566.19;4417815;32;35557;-75
2022/05/03 12:12:43;;;;;;;1.30;0.88;;;;;;;20.38;34.79;99553.94;4418158;32;35995;-77
2022/05/03 12:15:31;;;;;;;2.08;1.23;;;;;;;20.55;33.04;99558.94;4408595;32;34529;-75
2022/05/03 12:18:25;;;;;;;2.30;1.20;;;;;;;20.80;33.30;99556.41;4401203;32;185804;-74
2022/05/03 12:21:17;;;;;;;4.25;1.90;;;;;;;20.95;30.32;99556.56;4406294;32;34127;-75
2022/05/03 12:24:11;;;;;;;5.93;1.50;;;;;;;20.79;35.07;99567.94;4407460;32;34904;-75
2022/05/03 12:27:15;;;;;;;3.30;1.60;;;;;;;20.85;36.41;99558.03;4418576;32;33464;-75
2022/05/03 12:30:10;;;;;;;4.40;1.83;;;;;;;20.91;35.13;99556.50;4404220;32;34241;-76
2022/05/03 12:33:10;;;;;;;2.30;1.70;;;;;;;20.85;36.73;99560.84;4416368;32;34576;-75
2022/05/03 12:39:22;;;;;;;4.40;1.90;;;;;;;21.03;34.50;99550.69;4405485;32;34823;-76
2022/05/03 12:42:15;;;;;;;2.75;1.52;;;;;;;21.01;36.12;99553.03;4414657;32;35313;-76
2022/05/03 12:45:06;;;;;;;4.28;1.73;;;;;;;21.06;33.03;99555.47;4403242;32;35459;-75
2022/05/03 12:47:53;;;;;;;;;;;;;;;21.29;35.81;99555.28;4417277;32;35952;-75
2022/05/03 12:50:40;;;;;;;2.92;1.67;;;;;;;22.50;34.04;99543.28;4413649;32;35353;-76
2022/05/03 12:53:34;;;;;;;4.30;1.90;;;;;;;22.63;33.01;99540.94;4414084;32;34062;-75
2022/05/03 12:59:31;;;;;;;2.67;1.60;;;;;;;21.33;31.97;99552.53;4412806;32;35067;-75
2022/05/03 13:02:29;;;;;;;3.67;1.50;;;;;;;21.39;32.36;99541.84;4404523;32;34354;-74
2022/05/03 13:05:19;;;;;;;4.15;1.73;;;;;;;22.24;31.47;99541.59;4393532;32;34166;-76
2022/05/03 13:08:07;;;;;;;4.15;1.62;;;;;;;21.91;31.32;99540.59;4414485;32;34932;-75
2022/05/03 13:10:58;;;;;;;2.28;1.50;;;;;;;22.61;31.21;99543.31;4414964;32;34639;-73
2022/05/03 13:13:45;;;;;;;2.30;1.58;;;;;;;23.22;29.22;99537.84;4403661;32;35074;-74
2022/05/03 13:16:44;;;;;;;2.80;1.50;;;;;;;24.06;26.94;99532.56;4413476;32;33695;-75
2022/05/03 13:19:34;;;;;;;2.30;1.70;;;;;;;22.76;27.19;99532.97;4414306;32;34581;-76
2022/05/03 13:22:25;;;;;;;3.28;1.90;;;;;;;22.12;29.23;99541.91;4405879;32;35087;-75
2022/05/03 13:25:18;;;;;;;3.65;2.15;;;;;;;21.87;30.84;99539.00;4405017;32;34260;-74
2022/05/03 13:28:11;;;;;;;6.65;1.80;;;;;;;21.14;32.43;99544.41;4416745;32;34084;-74
2022/05/03 13:30:58;;;;;;;3.67;1.80;;;;;;;21.08;32.45;99549.50;4413811;32;35249;-74
2022/05/03 13:33:51;;;;;;;2.50;1.60;;;;;;;21.21;31.24;99536.09;4414113;32;34951;-74
2022/05/03 13:43:15;;;;;;;4.37;1.90;;;;;;;23.82;27.38;99522.22;4403437;32;35209;-75
2022/05/03 13:46:08;;;;;;;6.78;1.90;;;;;;;23.84;28.12;99519.84;4415659;32;34878;-73
2022/05/03 13:49:03;;;;;;;3.55;2.28;;;;;;;24.51;27.22;99527.19;4416393;32;34289;-75
2022/05/03 13:52:07;;;;;;;3.03;1.70;;;;;;;23.94;28.63;99521.81;4415094;32;34148;-76
2022/05/03 13:55:05;;;;;;;2.90;1.95;;;;;;;21.82;31.71;99540.16;4411570;32;34622;-76
2022/05/03 13:57:51;;;;;;;3.75;1.73;;;;;;;21.06;32.50;99522.06;4404556;32;35091;-75
2022/05/03 14:00:46;;;;;;;2.62;1.67;;;;;;;20.83;33.63;99522.25;4405795;32;34132;-75
2022/05/03 14:03:33;;;;;;;4.75;2.05;;;;;;;20.71;32.56;99518.91;4414887;32;34703;-74
2022/05/03 14:06:39;;;;;;;3.15;1.62;;;;;;;21.81;32.23;99521.81;4416927;32;34439;-74
2022/05/03 14:09:29;;;;;;;5.60;1.73;;;;;;;21.90;32.91;99516.69;4416696;32;34920;-74
2022/05/03 14:12:24;;;;;;;4.62;1.60;;;;;;;21.00;32.92;99520.00;4416117;32;34305;-74
2022/05/03 14:15:13;;;;;;;2.55;1.67;;;;;;;21.19;32.79;99521.75;4415966;32;34031;-74
2022/05/03 14:18:09;;;;;;;8.57;2.55;;;;;;;22.81;31.13;99530.59;4418609;32;35431;-74
2022/05/03 14:21:00;;;;;;;5.93;2.50;;;;;;;23.55;32.10;99534.63;4416048;32;35564;-73
2022/05/03 14:23:57;;;;;;;8.35;2.50;;;;;;;23.62;32.51;99527.44;4401811;32;35191;-74
2022/05/03 14:26:50;;;;;;;7.50;2.90;;;;;;;24.01;32.98;99530.97;4419148;32;35767;-74
2022/05/03 14:29:38;;;;;;;7.95;2.92;;;;;;;24.50;32.80;99531.19;4407154;32;35256;-72
2022/05/03 14:32:39;;;;;;;6.05;2.55;;;;;;;24.20;32.62;99535.31;4417193;32;34872;-73
2022/05/03 14:38:35;;;;;;;6.27;2.90;;;;;;;24.59;31.73;99551.16;4397411;32;34296;-73